Aviation Digital Data Service (ADDS)

Output produced by METARs form (0738 UTC 20 October 2018)
found at http://www.aviationweather.gov/metar/data/
 
HEAX 200700Z 21004KT CAVOK 24/18 Q1015 NOSIG
TAF HEAX 200500Z 2006/2112 12006KT CAVOK 
     TEMPO 2006/2008 VRB03KT 3000 BR NSC 
     BECMG 2010/2012 33010KT 9999 FEW020
       
HEBA 200700Z 18005KT CAVOK 23/18 Q1015 NOSIG
TAF HEBA 200500Z 2006/2112 12006KT CAVOK 
     TEMPO 2006/2008 VRB03KT 3000 BR NSC 
     BECMG 2010/2012 33010KT 9999 FEW020
       
TAF HESN 200500Z 2006/2112 36010KT CAVOK
       
HEAT 200700Z 28004KT CAVOK 24/14 Q1017 NOSIG
TAF HEAT 200500Z 2006/2112 35010G20KT 6000 NSC 
     BECMG 2012/2014 CAVOK
       
HECA 200730Z 06003KT 6000 NSC 26/18 Q1015 NOSIG
TAF HECA 200500Z 2006/2112 02008KT 6000 NSC 
     TEMPO 2006/2008 4000HZ 
     BECMG 2008/2010 35009KT 9999 FEW025
       
TAF HEAR 200500Z 2006/2112 32008KT 9999 SCT020
       
HEGN 200700Z 35009KT CAVOK 28/15 Q1013 NOSIG
TAF HEGN 200500Z 2006/2112 02014KT CAVOK
       
HELX 200700Z 04002KT CAVOK 27/12 Q1014 NOSIG
TAF HELX 200500Z 2006/2112 VRB03KT CAVOK 
     TEMPO 2006/2009 5000 HZ NSC 
     BECMG 2010/2012 32010KT
       
HEMM 200700Z 13007KT CAVOK 24/19 Q1016 NOSIG
TAF HEMM 200500Z 2006/2112 14008KT CAVOK 
     BECMG 2010/2012 07012KT 9999 FEW020
       
HEPS 200700Z 23002KT CAVOK 25/18 Q1015 NOSIG
TAF HEPS 200500Z 2006/2112 31008KT 9999 FEW025 
     TEMPO 2006/2008 VRB03KT 3000 BR
       
HESH 200700Z 01009KT CAVOK 29/20 Q1013 NOSIG
TAF HESH 200500Z 2006/2112 03012KT CAVOK
       
TAF HETB 200500Z 2006/2112 04013KT CAVOK